createdAt,value
2023-01-29T00:01:15.881Z,92.97
2023-01-29T00:03:43.660Z,93.17
2023-01-29T00:06:12.854Z,93.39
2023-01-29T00:08:40.667Z,93.29
2023-01-29T00:11:09.979Z,93.09
2023-01-29T00:13:37.732Z,92.92
2023-01-29T00:16:06.294Z,92.77
2023-01-29T00:18:34.070Z,92.48
2023-01-29T00:21:01.874Z,92.03
2023-01-29T00:23:30.980Z,91.83
2023-01-29T00:26:00.952Z,91.65
2023-01-29T00:28:28.675Z,91.07
2023-01-29T00:30:57.196Z,91.64
2023-01-29T00:33:25.032Z,92.23
2023-01-29T00:35:53.294Z,92.24
2023-01-29T00:38:21.022Z,92.39
2023-01-29T00:41:07.808Z,92.28
2023-01-29T00:43:53.042Z,92.34
2023-01-29T00:46:20.950Z,91.76
2023-01-29T00:48:48.718Z,91.63
2023-01-29T00:51:16.483Z,91.96
2023-01-29T00:53:44.245Z,92.33
2023-01-29T00:56:13.353Z,92.55
2023-01-29T00:58:41.123Z,92.80
2023-01-29T01:01:09.017Z,92.92
2023-01-29T01:03:42.034Z,93.15
2023-01-29T01:06:11.757Z,93.01
2023-01-29T01:08:57.218Z,93.16
2023-01-29T01:11:28.760Z,93.26
2023-01-29T01:14:02.018Z,92.77
2023-01-29T01:16:29.831Z,92.34
2023-01-29T01:18:57.557Z,92.42
2023-01-29T01:21:25.397Z,92.29
2023-01-29T01:23:53.560Z,92.48
2023-01-29T01:26:21.340Z,92.65
2023-01-29T01:28:50.466Z,92.71
2023-01-29T01:31:18.744Z,93.06
2023-01-29T01:33:46.530Z,93.47
2023-01-29T01:36:15.755Z,94.09
2023-01-29T01:38:45.354Z,94.13
2023-01-29T01:41:14.888Z,94.11
2023-01-29T01:43:55.561Z,94.02
2023-01-29T01:46:23.647Z,94.29
2023-01-29T01:48:57.067Z,94.52
2023-01-29T01:51:27.272Z,94.41
2023-01-29T01:53:59.141Z,94.48
2023-01-29T01:56:40.647Z,94.48
2023-01-29T01:59:12.980Z,94.01
2023-01-29T02:01:42.771Z,93.82
2023-01-29T02:04:31.949Z,94.12
2023-01-29T02:07:21.271Z,94.10
2023-01-29T02:09:53.883Z,93.75
2023-01-29T02:12:23.128Z,93.68
2023-01-29T02:14:53.100Z,93.60
2023-01-29T02:17:21.502Z,94.01
2023-01-29T02:19:58.408Z,94.43
2023-01-29T02:22:42.049Z,94.23
2023-01-29T02:25:32.892Z,93.87
2023-01-29T02:28:13.273Z,93.49
2023-01-29T02:30:45.957Z,93.05
2023-01-29T02:33:22.939Z,93.14
2023-01-29T02:35:59.652Z,92.95
2023-01-29T02:38:34.920Z,92.73
2023-01-29T02:41:09.695Z,92.47
2023-01-29T02:43:47.278Z,92.27
2023-01-29T02:46:24.134Z,92.28
2023-01-29T02:48:59.380Z,92.69
2023-01-29T02:51:35.303Z,92.73
2023-01-29T02:54:08.604Z,93.37
2023-01-29T02:56:40.327Z,93.56
2023-01-29T02:59:14.362Z,93.53
2023-01-29T03:01:48.680Z,93.32
2023-01-29T03:04:21.344Z,93.46
2023-01-29T03:06:54.518Z,93.62
2023-01-29T03:09:30.059Z,93.57
2023-01-29T03:12:20.030Z,93.32
2023-01-29T03:15:09.543Z,93.27
2023-01-29T03:17:42.193Z,93.25
2023-01-29T03:20:17.643Z,92.97
2023-01-29T03:22:51.487Z,92.61
2023-01-29T03:25:39.570Z,92.40
2023-01-29T03:28:27.048Z,91.95
2023-01-29T03:31:20.149Z,91.69
2023-01-29T03:34:00.700Z,91.34
2023-01-29T03:36:37.968Z,91.44
2023-01-29T03:39:07.149Z,91.62
2023-01-29T03:41:39.587Z,92.07
2023-01-29T03:44:15.787Z,92.26
2023-01-29T03:46:51.502Z,92.39
2023-01-29T03:49:28.263Z,91.63
2023-01-29T03:52:02.531Z,91.65
2023-01-29T03:54:35.104Z,91.84
2023-01-29T03:57:15.014Z,92.25
2023-01-29T03:59:52.475Z,92.77
2023-01-29T04:03:03.274Z,92.68
2023-01-29T04:05:40.924Z,92.82
2023-01-29T04:08:23.777Z,92.84
2023-01-29T04:10:53.971Z,92.53
2023-01-29T04:13:24.300Z,92.03
2023-01-29T04:15:57.643Z,91.48
2023-01-29T04:18:47.456Z,91.19
2023-01-29T04:21:16.395Z,91.32
2023-01-29T04:23:44.726Z,91.58
2023-01-29T04:26:30.527Z,91.56
2023-01-29T04:29:21.558Z,91.53
2023-01-29T04:31:58.420Z,91.94
2023-01-29T04:34:30.549Z,92.25
2023-01-29T04:37:09.112Z,91.98
2023-01-29T04:39:47.474Z,92.05
2023-01-29T04:42:26.913Z,91.83
2023-01-29T04:45:00.460Z,91.55
2023-01-29T04:47:35.327Z,91.12
2023-01-29T04:50:17.659Z,90.67
2023-01-29T04:52:52.233Z,90.37
2023-01-29T04:55:27.365Z,90.32
2023-01-29T04:58:06.438Z,90.44
2023-01-29T05:00:37.102Z,90.31
2023-01-29T05:03:06.202Z,90.24
2023-01-29T05:05:35.499Z,90.63
2023-01-29T05:08:05.761Z,90.55
2023-01-29T05:10:35.266Z,90.41
2023-01-29T05:13:07.490Z,90.35
2023-01-29T05:15:39.348Z,90.39
2023-01-29T05:18:08.904Z,90.63
2023-01-29T05:20:40.886Z,90.42
2023-01-29T05:23:11.783Z,90.41
2023-01-29T05:25:39.553Z,90.36
2023-01-29T05:28:06.934Z,90.14
2023-01-29T05:30:36.671Z,89.88
2023-01-29T05:33:05.364Z,90.19
2023-01-29T05:35:33.955Z,90.03
2023-01-29T05:38:03.128Z,90.35
2023-01-29T05:40:31.004Z,90.07
2023-01-29T05:42:58.727Z,89.80
2023-01-29T05:45:26.533Z,89.93
2023-01-29T05:47:57.298Z,89.76
2023-01-29T05:50:26.190Z,89.91
2023-01-29T05:52:57.616Z,89.69
2023-01-29T05:55:27.747Z,89.94
2023-01-29T05:57:55.520Z,89.84
2023-01-29T06:00:23.601Z,89.81
2023-01-29T06:02:51.422Z,95.44
2023-01-29T06:05:19.255Z,97.42
2023-01-29T06:07:47.288Z,97.58
2023-01-29T06:10:17.272Z,96.76
2023-01-29T06:12:46.916Z,92.57
2023-01-29T06:15:16.334Z,91.80
2023-01-29T06:17:44.093Z,91.42
2023-01-29T06:20:12.916Z,89.85
2023-01-29T06:22:40.666Z,89.96
2023-01-29T06:25:09.590Z,91.74
2023-01-29T06:27:37.407Z,90.99
2023-01-29T06:30:07.692Z,90.58
2023-01-29T06:32:35.554Z,90.16
2023-01-29T06:35:03.495Z,82.73
2023-01-29T06:37:31.273Z,86.52
2023-01-29T06:39:59.035Z,87.23
2023-01-29T06:42:28.015Z,87.75
2023-01-29T06:44:55.962Z,86.70
2023-01-29T06:47:25.429Z,88.29
2023-01-29T06:49:53.156Z,89.17
2023-01-29T06:52:20.894Z,89.06
2023-01-29T06:54:48.673Z,89.14
2023-01-29T06:57:16.461Z,89.26
2023-01-29T06:59:44.203Z,88.31
2023-01-29T07:02:12.051Z,87.64
2023-01-29T07:04:41.622Z,87.61
2023-01-29T07:07:13.114Z,87.77
2023-01-29T07:09:41.747Z,87.98
2023-01-29T07:12:09.625Z,88.26
2023-01-29T07:14:37.722Z,88.10
2023-01-29T07:17:05.489Z,88.32
2023-01-29T07:19:33.201Z,88.20
2023-01-29T07:22:02.457Z,88.54
2023-01-29T07:24:30.140Z,88.43
2023-01-29T07:26:58.310Z,88.55
2023-01-29T07:29:26.035Z,88.49
2023-01-29T07:31:53.923Z,88.47
2023-01-29T07:34:21.897Z,88.23
2023-01-29T07:36:49.655Z,88.30
2023-01-29T07:39:18.797Z,88.16
2023-01-29T07:41:46.554Z,87.98
2023-01-29T07:44:17.546Z,87.94
2023-01-29T07:46:45.510Z,87.70
2023-01-29T07:49:13.417Z,87.75
2023-01-29T07:51:41.445Z,87.68
2023-01-29T07:54:09.421Z,87.67
2023-01-29T07:56:38.564Z,87.86
2023-01-29T07:59:06.354Z,87.51
2023-01-29T08:01:34.147Z,87.62
2023-01-29T08:04:01.857Z,87.75
2023-01-29T08:06:29.604Z,87.50
2023-01-29T08:08:57.484Z,87.34
2023-01-29T08:11:25.260Z,87.28
2023-01-29T08:13:54.429Z,87.22
2023-01-29T08:16:22.291Z,87.16
2023-01-29T08:18:50.371Z,87.11
2023-01-29T08:21:18.292Z,87.36
2023-01-29T08:23:46.062Z,87.20
2023-01-29T08:26:13.813Z,87.02
2023-01-29T08:28:41.534Z,87.07
2023-01-29T08:31:16.196Z,87.12
2023-01-29T08:33:44.269Z,87.02
2023-01-29T08:36:12.036Z,86.91
2023-01-29T08:38:39.856Z,86.75
2023-01-29T08:41:07.880Z,86.80
2023-01-29T08:43:36.885Z,86.88
2023-01-29T08:46:05.438Z,86.77
2023-01-29T08:48:34.949Z,86.80
2023-01-29T08:51:04.408Z,86.79
2023-01-29T08:53:32.809Z,86.53
2023-01-29T08:56:00.553Z,86.45
2023-01-29T08:58:28.370Z,86.34
2023-01-29T09:00:56.207Z,86.39
2023-01-29T09:03:24.000Z,86.54
2023-01-29T09:05:53.088Z,86.11
2023-01-29T09:08:20.823Z,86.07
2023-01-29T09:10:48.533Z,86.25
2023-01-29T09:13:16.306Z,85.88
2023-01-29T09:15:44.146Z,85.75
2023-01-29T09:18:12.055Z,85.62
2023-01-29T09:20:39.817Z,85.48
2023-01-29T09:23:10.561Z,85.62
2023-01-29T09:25:38.593Z,85.35
2023-01-29T09:28:07.547Z,85.42
2023-01-29T09:30:37.672Z,85.35
2023-01-29T09:33:05.972Z,85.54
2023-01-29T09:35:34.826Z,85.49
2023-01-29T09:38:02.622Z,85.40
2023-01-29T09:40:39.461Z,85.28
2023-01-29T09:43:13.250Z,85.35
2023-01-29T09:45:46.739Z,85.37
2023-01-29T09:48:14.871Z,85.34
2023-01-29T09:50:45.951Z,85.43
2023-01-29T09:53:19.912Z,84.93
2023-01-29T09:55:52.336Z,84.79
2023-01-29T09:58:23.947Z,84.40
2023-01-29T10:01:00.986Z,83.57
2023-01-29T10:03:42.924Z,83.24
2023-01-29T10:06:24.579Z,82.92
2023-01-29T10:09:16.061Z,82.62
2023-01-29T10:11:57.700Z,82.44
2023-01-29T10:14:37.795Z,81.99
2023-01-29T10:17:17.342Z,81.76
2023-01-29T10:19:58.592Z,81.88
2023-01-29T10:23:01.053Z,81.65
2023-01-29T10:25:29.114Z,81.71
2023-01-29T10:28:00.724Z,81.43
2023-01-29T10:30:33.182Z,80.86
2023-01-29T10:33:03.758Z,80.98
2023-01-29T10:35:35.816Z,81.50
2023-01-29T10:38:20.179Z,81.51
2023-01-29T10:40:57.043Z,81.54
2023-01-29T10:43:33.991Z,81.34
2023-01-29T10:46:13.670Z,81.80
2023-01-29T10:49:01.350Z,81.26
2023-01-29T10:51:43.997Z,80.84
2023-01-29T10:54:27.232Z,81.27
2023-01-29T10:57:07.909Z,81.47
2023-01-29T10:59:56.889Z,82.03
2023-01-29T11:02:24.731Z,82.45
2023-01-29T11:04:53.156Z,82.43
2023-01-29T11:07:23.445Z,82.43
2023-01-29T11:09:57.377Z,82.34
2023-01-29T11:12:30.681Z,81.88
2023-01-29T11:15:06.327Z,82.04
2023-01-29T11:17:34.166Z,82.11
2023-01-29T11:20:02.045Z,81.78
2023-01-29T11:22:31.284Z,81.87
2023-01-29T11:25:10.939Z,82.06
2023-01-29T11:27:44.425Z,81.28
2023-01-29T11:30:22.671Z,81.79
2023-01-29T11:32:53.814Z,82.15
2023-01-29T11:35:24.093Z,81.93
2023-01-29T11:37:52.211Z,82.12
2023-01-29T11:40:36.116Z,82.42
2023-01-29T11:43:22.244Z,82.63
2023-01-29T11:45:54.012Z,82.47
2023-01-29T11:48:23.396Z,82.65
2023-01-29T11:50:55.290Z,82.64
2023-01-29T11:53:28.793Z,82.59
2023-01-29T11:55:56.916Z,82.65
2023-01-29T11:58:30.199Z,82.76
2023-01-29T12:01:01.114Z,82.95
2023-01-29T12:03:36.246Z,83.00
2023-01-29T12:06:07.345Z,83.04
2023-01-29T12:08:38.610Z,83.02
2023-01-29T12:11:13.149Z,82.87
2023-01-29T12:13:43.277Z,82.90
2023-01-29T12:16:22.793Z,82.78
2023-01-29T12:18:56.089Z,82.46
2023-01-29T12:21:31.419Z,82.36
2023-01-29T12:24:03.183Z,82.29
2023-01-29T12:26:34.773Z,82.17
2023-01-29T12:29:21.496Z,82.23
2023-01-29T12:31:56.223Z,81.73
2023-01-29T12:34:34.320Z,81.82
2023-01-29T12:37:07.801Z,81.68
2023-01-29T12:39:37.357Z,81.73
2023-01-29T12:42:11.350Z,81.47
2023-01-29T12:44:43.688Z,81.43
2023-01-29T12:47:20.334Z,81.01
2023-01-29T12:49:53.148Z,80.91
2023-01-29T12:52:26.030Z,81.07
2023-01-29T12:54:57.246Z,81.11
2023-01-29T12:57:33.466Z,81.41
2023-01-29T13:00:08.996Z,81.15
2023-01-29T13:02:45.244Z,81.17
2023-01-29T13:05:21.750Z,80.42
2023-01-29T13:07:55.561Z,80.40
2023-01-29T13:10:30.711Z,80.74
2023-01-29T13:13:03.851Z,81.16
2023-01-29T13:15:36.322Z,81.16
2023-01-29T13:18:25.098Z,81.20
2023-01-29T13:20:53.595Z,80.99
2023-01-29T13:23:23.235Z,80.81
2023-01-29T13:25:52.807Z,80.76
2023-01-29T13:28:22.942Z,80.46
2023-01-29T13:31:13.548Z,80.56
2023-01-29T13:33:44.964Z,80.85
2023-01-29T13:36:19.352Z,80.92
2023-01-29T13:38:47.338Z,80.67
2023-01-29T13:41:15.978Z,80.85
2023-01-29T13:43:50.626Z,80.62
2023-01-29T13:46:21.451Z,80.62
2023-01-29T13:48:54.509Z,80.71
2023-01-29T13:51:26.713Z,80.53
2023-01-29T13:53:58.195Z,80.47
2023-01-29T13:56:51.616Z,80.20
2023-01-29T13:59:24.813Z,80.31
2023-01-29T14:02:04.482Z,80.44
2023-01-29T14:04:34.144Z,80.71
2023-01-29T14:07:04.063Z,80.80
2023-01-29T14:10:04.615Z,81.10
2023-01-29T14:12:55.461Z,81.05
2023-01-29T14:15:31.490Z,80.63
2023-01-29T14:18:06.076Z,80.84
2023-01-29T14:20:47.056Z,80.90
2023-01-29T14:23:35.902Z,81.32
2023-01-29T14:26:06.159Z,81.31
2023-01-29T14:28:35.813Z,81.78
2023-01-29T14:31:04.993Z,81.99
2023-01-29T14:33:36.998Z,81.81
2023-01-29T14:36:10.322Z,81.83
2023-01-29T14:38:39.776Z,81.34
2023-01-29T14:41:18.187Z,81.56
2023-01-29T14:43:46.086Z,81.70
2023-01-29T14:46:43.296Z,81.91
2023-01-29T14:49:11.511Z,82.26
2023-01-29T14:51:44.438Z,82.15
2023-01-29T14:54:26.318Z,82.19
2023-01-29T14:56:59.640Z,82.23
2023-01-29T14:59:33.080Z,82.35
2023-01-29T15:02:04.179Z,82.78
2023-01-29T15:04:45.526Z,82.80
2023-01-29T15:07:26.599Z,83.13
2023-01-29T15:10:13.522Z,83.13
2023-01-29T15:12:50.765Z,83.33
2023-01-29T15:15:23.458Z,83.45
2023-01-29T15:17:58.366Z,83.45
2023-01-29T15:20:28.834Z,83.47
2023-01-29T15:22:58.445Z,83.69
2023-01-29T15:25:27.500Z,83.62
2023-01-29T15:27:57.783Z,83.58
2023-01-29T15:30:33.482Z,83.70
2023-01-29T15:33:02.829Z,83.62
2023-01-29T15:35:31.362Z,83.78
2023-01-29T15:38:02.615Z,83.61
2023-01-29T15:40:30.668Z,83.70
2023-01-29T15:42:58.865Z,83.95
2023-01-29T15:45:30.991Z,83.79
2023-01-29T15:48:05.993Z,84.09
2023-01-29T15:50:36.791Z,84.11
2023-01-29T15:53:10.370Z,84.14
2023-01-29T15:55:38.226Z,84.06
2023-01-29T15:58:07.706Z,84.13
2023-01-29T16:00:35.643Z,84.10
2023-01-29T16:03:15.060Z,84.05
2023-01-29T16:05:43.220Z,84.10
2023-01-29T16:08:16.035Z,83.99
2023-01-29T16:10:45.115Z,84.18
2023-01-29T16:13:21.097Z,84.29
2023-01-29T16:15:57.915Z,84.33
2023-01-29T16:18:29.853Z,84.19
2023-01-29T16:20:59.362Z,84.17
2023-01-29T16:23:33.258Z,84.20
2023-01-29T16:26:04.418Z,84.08
2023-01-29T16:28:32.491Z,84.20
2023-01-29T16:31:04.154Z,84.20
2023-01-29T16:33:36.255Z,84.24
2023-01-29T16:36:06.146Z,83.95
2023-01-29T16:38:37.065Z,84.05
2023-01-29T16:41:15.257Z,84.08
2023-01-29T16:43:55.637Z,84.19
2023-01-29T16:46:32.789Z,83.99
2023-01-29T16:49:01.272Z,84.06
2023-01-29T16:51:30.753Z,83.94
2023-01-29T16:54:02.377Z,84.03
2023-01-29T16:56:33.183Z,84.10
2023-01-29T16:59:03.648Z,84.20
2023-01-29T17:01:32.019Z,84.19
2023-01-29T17:04:08.861Z,84.21
2023-01-29T17:06:37.322Z,84.20
2023-01-29T17:09:08.096Z,84.28
2023-01-29T17:11:38.669Z,84.15
2023-01-29T17:14:08.256Z,84.35
2023-01-29T17:16:38.456Z,84.33
2023-01-29T17:19:17.808Z,84.26
2023-01-29T17:21:45.501Z,84.28
2023-01-29T17:24:14.621Z,84.51
2023-01-29T17:26:42.796Z,84.47
2023-01-29T17:29:15.490Z,84.51
2023-01-29T17:31:43.497Z,84.67
2023-01-29T17:34:12.663Z,84.68
2023-01-29T17:36:40.450Z,84.62
2023-01-29T17:39:18.204Z,84.64
2023-01-29T17:41:48.233Z,84.62
2023-01-29T17:44:16.290Z,84.71
2023-01-29T17:46:44.453Z,84.70
2023-01-29T17:49:23.431Z,84.56
2023-01-29T17:51:51.501Z,84.65
2023-01-29T17:54:20.696Z,84.54
2023-01-29T17:56:48.739Z,84.43
2023-01-29T17:59:18.481Z,84.67
2023-01-29T18:01:47.545Z,84.66
2023-01-29T18:04:15.789Z,84.65
2023-01-29T18:06:45.369Z,84.59
2023-01-29T18:09:15.142Z,84.55
2023-01-29T18:11:44.563Z,84.52
2023-01-29T18:14:14.009Z,84.59
2023-01-29T18:16:43.437Z,84.66
2023-01-29T18:19:17.355Z,84.72
2023-01-29T18:21:45.252Z,84.75
2023-01-29T18:24:13.027Z,84.67
2023-01-29T18:26:40.841Z,84.71
2023-01-29T18:29:10.017Z,84.79
2023-01-29T18:31:37.867Z,84.86
2023-01-29T18:34:05.838Z,84.58
2023-01-29T18:36:33.626Z,84.72
2023-01-29T18:39:01.451Z,84.73
2023-01-29T18:41:29.244Z,84.73
2023-01-29T18:43:57.107Z,84.71
2023-01-29T18:46:26.341Z,84.78
2023-01-29T18:48:54.159Z,84.81
2023-01-29T18:51:21.953Z,84.77
2023-01-29T18:53:53.013Z,84.89
2023-01-29T18:56:20.949Z,85.07
2023-01-29T18:58:52.018Z,84.93
2023-01-29T19:01:23.595Z,84.97
2023-01-29T19:03:52.830Z,85.12
2023-01-29T19:06:20.674Z,85.27
2023-01-29T19:08:48.630Z,85.44
2023-01-29T19:11:16.604Z,85.44
2023-01-29T19:13:44.391Z,85.29
2023-01-29T19:16:13.486Z,85.38
2023-01-29T19:18:41.345Z,85.29
2023-01-29T19:21:12.402Z,85.43
2023-01-29T19:23:40.600Z,85.49
2023-01-29T19:26:08.417Z,85.92
2023-01-29T19:28:36.468Z,86.38
2023-01-29T19:31:04.794Z,86.29
2023-01-29T19:33:32.642Z,86.30
2023-01-29T19:36:00.882Z,86.24
2023-01-29T19:38:33.333Z,86.18
2023-01-29T19:41:01.334Z,86.25
2023-01-29T19:43:30.749Z,86.48
2023-01-29T19:45:59.493Z,86.50
2023-01-29T19:48:27.520Z,86.69
2023-01-29T19:50:56.800Z,86.77
2023-01-29T19:53:25.275Z,86.92
2023-01-29T19:56:02.195Z,87.00
2023-01-29T19:58:30.444Z,87.02
2023-01-29T20:00:59.279Z,87.00
2023-01-29T20:03:28.157Z,86.86
2023-01-29T20:05:56.233Z,86.90
2023-01-29T20:08:24.837Z,86.85
2023-01-29T20:10:52.644Z,86.91
2023-01-29T20:13:21.798Z,86.81
2023-01-29T20:15:51.671Z,87.00
2023-01-29T20:18:20.115Z,87.10
2023-01-29T20:20:49.602Z,87.00
2023-01-29T20:23:31.703Z,87.13
2023-01-29T20:26:04.634Z,87.39
2023-01-29T20:28:34.483Z,87.50
2023-01-29T20:31:02.520Z,87.55
2023-01-29T20:33:30.608Z,87.71
2023-01-29T20:36:00.341Z,87.78
2023-01-29T20:38:31.544Z,87.74
2023-01-29T20:41:04.021Z,87.78
2023-01-29T20:43:33.874Z,87.80
2023-01-29T20:46:02.061Z,87.75
2023-01-29T20:48:30.659Z,87.88
2023-01-29T20:51:03.637Z,87.92
2023-01-29T20:53:31.425Z,87.81
2023-01-29T20:55:59.242Z,87.80
2023-01-29T20:58:27.286Z,87.89
2023-01-29T21:00:56.394Z,87.82
2023-01-29T21:03:24.164Z,88.02
2023-01-29T21:05:52.318Z,88.21
2023-01-29T21:08:20.141Z,88.21
2023-01-29T21:10:50.341Z,88.10
2023-01-29T21:13:18.088Z,88.22
2023-01-29T21:15:45.930Z,88.11
2023-01-29T21:18:14.995Z,88.01
2023-01-29T21:20:42.740Z,87.96
2023-01-29T21:23:10.610Z,88.08
2023-01-29T21:25:39.607Z,88.27
2023-01-29T21:28:07.483Z,89.01
2023-01-29T21:30:35.515Z,90.07
2023-01-29T21:33:03.331Z,90.23
2023-01-29T21:35:33.084Z,90.46
2023-01-29T21:38:00.682Z,90.50
2023-01-29T21:40:30.454Z,90.51
2023-01-29T21:43:13.244Z,90.34
2023-01-29T21:45:41.639Z,90.43
2023-01-29T21:48:10.248Z,90.37
2023-01-29T21:50:39.874Z,90.27
2023-01-29T21:53:07.812Z,90.11
2023-01-29T21:55:35.632Z,90.12
2023-01-29T21:58:04.202Z,90.00
2023-01-29T22:00:32.069Z,90.11
2023-01-29T22:03:00.004Z,90.07
2023-01-29T22:05:29.112Z,90.08
2023-01-29T22:07:58.269Z,90.10
2023-01-29T22:10:26.193Z,89.97
2023-01-29T22:12:54.070Z,89.99
2023-01-29T22:15:23.705Z,90.29
2023-01-29T22:17:52.127Z,90.71
2023-01-29T22:20:20.591Z,90.72
2023-01-29T22:22:48.473Z,90.84
2023-01-29T22:25:19.947Z,90.86
2023-01-29T22:27:47.848Z,90.73
2023-01-29T22:30:16.188Z,90.53
2023-01-29T22:32:44.181Z,90.45
2023-01-29T22:35:11.961Z,90.41
2023-01-29T22:37:39.735Z,90.40
2023-01-29T22:40:08.654Z,90.48
2023-01-29T22:42:37.759Z,90.45
2023-01-29T22:45:06.238Z,90.67
2023-01-29T22:47:34.101Z,90.77
2023-01-29T22:50:01.889Z,90.91
2023-01-29T22:52:38.581Z,91.01
2023-01-29T22:55:09.234Z,91.04
2023-01-29T22:57:38.372Z,91.25
2023-01-29T23:00:08.098Z,91.16
2023-01-29T23:02:35.858Z,91.93
2023-01-29T23:05:04.219Z,91.34
2023-01-29T23:07:32.004Z,91.29
2023-01-29T23:09:59.893Z,91.63
2023-01-29T23:12:27.663Z,91.33
2023-01-29T23:14:56.739Z,91.44
2023-01-29T23:17:24.508Z,91.38
2023-01-29T23:19:52.278Z,91.40
2023-01-29T23:22:20.063Z,91.47
2023-01-29T23:24:47.821Z,91.29
2023-01-29T23:27:14.673Z,91.33
2023-01-29T23:29:43.097Z,91.39
2023-01-29T23:32:13.518Z,91.15
2023-01-29T23:34:41.330Z,91.15
2023-01-29T23:37:09.147Z,91.12
2023-01-29T23:39:36.861Z,90.93
2023-01-29T23:42:05.235Z,90.89
2023-01-29T23:44:32.987Z,90.78
2023-01-29T23:47:00.794Z,90.97
2023-01-29T23:49:29.948Z,91.03
2023-01-29T23:51:58.207Z,91.07
2023-01-29T23:54:26.226Z,91.25
2023-01-29T23:56:54.037Z,91.54
2023-01-29T23:59:22.014Z,91.67
